イヌヴィック空港の過去48時間の天気

イヌヴィック空港 (Inuvik)

現在時刻: 1/20 21:10 MST (1/21 04:10 UTC) 以下の時間は現地時間です。

過去48時間のMETAR気象情報
時間 風向 風速(m/s) 視程 気温(℃) 湿度(%) 気圧(hPa) 天気現象
20 20:00 東北東 2 10km以上 -27 76 1007.1
20 19:00 東北東 2 10km以上 -29 75 1007.4
20 18:00 東北東 2 10km以上 -30 75 1007.6
20 17:00 東北東 2 10km以上 -27 69 1007.6
20 16:00 2 10km以上 -28 75 1007.5
20 15:00 不定 1 10km以上 -28 75 1007.5
20 14:00 不定 1 10km以上 -28 75 1007.3
20 13:00 北東 3 10km以上 -27 76 1006.8
20 12:00 東北東 4 10km以上 -28 75 1006.8
20 11:00 静穏 0 10km以上 -29 75 1007
20 10:00 2 10km以上 -30 75 1006.9
20 09:00 不定 1 10km以上 -31 75 1006.8
20 08:00 東北東 1 10km以上 -29 68 1006.5
20 07:00 東北東 3 10km以上 -30 75 1006.6
20 06:00 2 10km以上 -29 68 1006.9
20 05:00 東北東 2 10km以上 -29 68 1006.9
20 04:00 北東 3 10km以上 -30 68 1006.8
20 03:00 静穏 0 10km以上 -29 68 1006.7
20 02:00 南東 1 10km以上 -28 75 1006.6
20 01:00 北北西 1 10km以上 -28 75 1006.2
20 00:00 北東 1 10km以上 -29 75 1005.8
19 23:00 東南東 1 10km以上 -28 75 1005.7
19 22:00 2 10km以上 -29 68 1005.6
19 21:00 静穏 0 10km以上 -28 75 1005.9
19 20:00 静穏 0 10km以上 -27 76 1005.8
19 19:00 静穏 0 10km以上 -28 69 1005.6
19 18:00 東北東 2 10km以上 -28 69 1005.5
19 17:00 東北東 3 10km以上 -28 75 1005.8
19 16:00 東北東 2 10km以上 -28 75 1005.8
19 15:00 4 10km以上 -27 69 1005.8
19 14:00 4 10km以上 -28 69 1005.7
19 13:00 2 10km以上 -29 75 1005.7
19 12:00 3 10km以上 -27 76 1006.1
19 11:00 4 10km以上 -27 69 1006.1
19 10:00 4 10km以上 -26 69 1006.4
19 09:00 4 10km以上 -27 69 1006.7
19 08:00 3 10km以上 -26 69 1007.3
19 07:00 3 10km以上 -26 69 1007.8
19 06:00 東北東 2 10km以上 -26 69 1008.9
19 05:00 2 10km以上 -25 69 1009.5
19 04:00 東北東 3 10km以上 -25 69 1010
19 03:00 3 10km以上 -25 69 1010.6
19 02:00 3 10km以上 -25 69 1011.6
19 01:00 南東 5 10km以上 -23 64 1012.2
19 00:00 南南東 4 10km以上 -23 64 1013.1
18 23:00 東南東 2 10km以上 -23 64 1013.8
18 22:00 不定 1 10km以上 -23 70 1014.5
CYEV 210300Z 07003KT 15SM FEW240 M27/M30 A2970 RMK CI1 SLP071
CYEV 210200Z 07003KT 15SM FEW210 M29/M32 A2971 RMK CI2 SLP074
CYEV 210100Z 07003KT 15SM FEW140 FEW210 M30/M33 A2972 RMK AC1CI2 AC TR SLP076
CYEV 210000Z 07003KT 15SM FEW140 FEW210 M27/M31 A2972 RMK AC1CI2 AC TR SLP076
CYEV 202300Z 08004KT 15SM FEW140 FEW230 M28/M31 A2971 RMK AC1CI1 SLP075
CYEV 202200Z VRB02KT 15SM FEW140 SCT210 M28/M31 A2971 RMK AC1CI2 SLP075
CYEV 202100Z VRB02KT 15SM FEW140 SCT210 M28/M31 A2971 RMK AC2CI2 SLP073
CYEV 202000Z 05005KT 15SM FEW140 SCT210 M27/M30 A2969 RMK AC1CI3 SLP068
CYEV 201900Z 06008KT 15SM FEW140 SCT210 M28/M31 A2969 RMK AC1CI3 SLP068
CYEV 201800Z 00000KT 15SM FEW130 SCT230 M29/M32 A2970 RMK AC2CI2 SLP070
CYEV 201700Z 08003KT 15SM FEW120 M30/M33 A2969 RMK AC2 SLP069
CYEV 201600Z VRB02KT 15SM SKC M31/M34 A2969 RMK SLP068
CYEV 201500Z 06002KT 15SM SKC M29/M33 A2969 RMK SLP065
CYEV 201400Z 07005KT 15SM SKC M30/M33 A2969 RMK SLP066
CYEV 201300Z 10003KT 15SM SKC M29/M33 A2969 RMK SLP069
CYEV 201200Z 06003KT 15SM SKC M29/M33 A2969 RMK SLP069
CYEV 201100Z 05005KT 15SM SKC M30/M34 A2969 RMK SLP068
CYEV 201000Z 00000KT 15SM SKC M29/M33 A2969 RMK SLP067
CYEV 200900Z 13002KT 15SM SKC M28/M31 A2969 RMK SLP066
CYEV 200800Z 33002KT 15SM SKC M28/M31 A2967 RMK AURBO SLP062
CYEV 200700Z 05002KT 15SM SKC M29/M32 A2966 RMK SLP058
CYEV 200600Z 11002KT 15SM SKC M28/M31 A2966 RMK SLP057
CYEV 200500Z 09004KT 15SM SKC M29/M33 A2966 RMK SLP056
CYEV 200400Z 00000KT 15SM SKC M28/M31 A2967 RMK SLP059
CYEV 200300Z 00000KT 15SM SKC M27/M30 A2966 RMK SLP058
CYEV 200200Z 00000KT 15SM FEW090 M28/M32 A2966 RMK AC1 SLP056
CYEV 200100Z 06004KT 15SM FEW090 M28/M32 A2966 RMK AC1 AC TR SLP055
CYEV 200000Z 07006KT 15SM SKC M28/M31 A2966 RMK SLP058
CYEV 192300Z 06004KT 15SM SKC M28/M31 A2966 RMK SLP058
CYEV 192200Z 09008KT 15SM SKC M27/M31 A2966 RMK SLP058
CYEV 192100Z 10007KT 15SM SKC M28/M32 A2966 RMK SLP057
CYEV 192000Z 08004KT 15SM SKC M29/M32 A2966 RMK SLP057
CYEV 191900Z 09005KT 15SM SKC M27/M30 A2967 RMK SLP061
CYEV 191800Z 09007KT 15SM SKC M27/M31 A2967 RMK SLP061
CYEV 191700Z 08007KT 15SM SKC M26/M30 A2968 RMK SLP064
CYEV 191600Z 10008KT 15SM SKC M27/M31 A2969 RMK SLP067
CYEV 191500Z 09006KT 15SM SKC M26/M30 A2971 RMK SLP073
CYEV 191400Z 09006KT 15SM SKC M26/M30 A2972 RMK SLP078
CYEV 191300Z 06004KT 15SM SKC M26/M30 A2976 RMK SLP089
CYEV 191200Z 09004KT 070V150 15SM SKC M25/M29 A2978 RMK SLP095
CYEV 191100Z 06006KT 15SM SKC M25/M29 A2979 RMK SLP100
CYEV 191000Z 10006KT 15SM SKC M25/M29 A2981 RMK AURBO SLP106
CYEV 190900Z 10006KT 15SM SKC M25/M29 A2984 RMK AURBO SLP116
CYEV 190800Z 13009KT 15SM SKC M23/M28 A2986 RMK AURBO SLP122
CYEV 190700Z 15007KT 15SM SKC M23/M28 A2988 RMK SLP131
CYEV 190600Z 12004KT 15SM SKC M23/M28 A2990 RMK SLP138
CYEV 190500Z VRB02KT 15SM SKC M23/M27 A2993 RMK SLP145